Henry Post Army Air Field (Fort Sill) Fort Sill US
ICAO: KFSI
IATA: FSI
Category: Medium
Scheduled Services: No

Elevation: 1189 ft
TransAlt. 18000 ft.

Airport Communications:
FORT SILL APP/DEP:118.6
ATIS:135.425
CLNC DEL:121.7
POST GND:121.7
DUNCAN SCTR:118.6
PMSV METRO:37.52
PTD:123.05
POST TWR:124.95

KFSI Zoom In..

If you have problems with the map follow the link
https://www.worldairports.se/pages/airport.php?
ICAO=KFSI

Runways:

(A) RW 17 length 5001 ft width 150 ft
---- / hdg 173

(B) RW 35 length 5001 ft width 150 ft
---- / hdg 353

Location; KFSI
Day. 14 / Time. 16.56 Zulu
* Altimeter: 29.90
* Temperature: 08° c. 46.4°f.
* Wind from: 050° Speed 09 kn.
Dewpoint: 02° c.
Visibility: 10 Statute Miles.
Clouds: Overcast 11000 ft.

KFSI 141656Z AUTO 05009KT 10SM OVC110 08/02 A2990 RMK AO2 SLP127 T00830021


Wind From 050°
Speed 09 kn.

 
 
jpsmedia worldairports.se 2019   terms of use